Aeroporto :
LOGIN :

Iscrizione | Disclaimer

   EN    FR    IT 

 










Sommario :    VFR   VFR Marginale   IFR   IFR Intensivo   IFR Molto Intensivo
Visibilità : 
Base nubi : 
>= 8 km
>= 3000ft
5 / 8 km
1000 / 3000 ft
1500m / 5 km
500 / 1000 ft
800 / 1500m
200 / 500 ft
< 800m
< 200 ft
Simboli :   Temporali  Nebbia  Neve Forte  Precipitazioni Forti  Vento > 20 kt
SIGMETs :   Varie  Temporali  Ghiacco  Turbolenza  Onda orograficha  Ceneri Vulcaniche






- Altitudine del aeroporto : 306 ft
- Codice IATA : EMA


EGNX - Nottingham East Midlands

ULTIMO METAR :
  • 231650Z 29013KT 9999 FEW042 06/M02 Q1019

METARs OBSOLETI :
  • 231620Z 30018G29KT 9999 SCT042 07/M02 Q1019
  • 231550Z 29017KT 9999 SCT042 07/M02 Q1018
  • 231520Z 29017G29KT 9999 FEW040 08/M02 Q1017
  • 231450Z 30019G30KT 9999 FEW047 08/M02 Q1017

TAF TAF EGNX
Valido dal 23 a 18 ore il 24 a 18 ore UTC


231705Z 2318/2418 26012KT CAVOK
BECMG 2322/2402 8000 -RA FEW008 BKN020
TEMPO 2400/2409 4000 RA BKN008
BECMG 2403/2406 12012KT
PROB30
TEMPO 2404/2407 RADZ BKN004
BECMG 2406/2409 22020G35KT
PROB30
TEMPO 2406/2410 +RA
BECMG 2409/2412 9999 NSW
TEMPO 2409/2412 BKN012
BECMG 2414/2417 25020G30KT
ATIS : +44 1332 852 852 (ext 3201)



MetMap, La meteo Aeronautica in un colpo d'occhio ! - Copyright ORBIFLY Dicembre 2007 - Disclaimer

ORBIFLY MET'MAP TEAM :

Programmazione e sviluppo : Alexandra Zaïnal
Concezione : Baudouin d'Aumeries
Aiuto per la programmazione : Marc-Olivier Méhu
Supporto tecnico e logistico : Manuel Goepfert
Aiuto per la traduzione : Arnaldo La Scala

Contatto : metmap@orbifly.com




FONTI E CREDITI :

   NOAA